sensor_id;sensor_type;location;lat;lon;timestamp;P1;durP1;ratioP1;P2;durP2;ratioP2
63203;SDS011;49297;43.210;27.914;2023-06-26T00:00:57;9.77;;;8.88;;
63203;SDS011;49297;43.210;27.914;2023-06-26T00:03:22;9.37;;;8.57;;
63203;SDS011;49297;43.210;27.914;2023-06-26T00:05:48;11.90;;;8.93;;
63203;SDS011;49297;43.210;27.914;2023-06-26T00:08:16;9.43;;;8.38;;
63203;SDS011;49297;43.210;27.914;2023-06-26T00:10:41;10.57;;;9.63;;
63203;SDS011;49297;43.210;27.914;2023-06-26T00:13:07;8.97;;;8.17;;
63203;SDS011;49297;43.210;27.914;2023-06-26T00:15:33;9.73;;;8.70;;
63203;SDS011;49297;43.210;27.914;2023-06-26T00:17:59;9.75;;;8.85;;
63203;SDS011;49297;43.210;27.914;2023-06-26T00:20:25;11.93;;;9.00;;
63203;SDS011;49297;43.210;27.914;2023-06-26T00:22:50;10.43;;;9.40;;
63203;SDS011;49297;43.210;27.914;2023-06-26T00:25:16;10.77;;;9.67;;
63203;SDS011;49297;43.210;27.914;2023-06-26T00:27:43;10.20;;;8.98;;
63203;SDS011;49297;43.210;27.914;2023-06-26T00:30:09;10.65;;;8.75;;
63203;SDS011;49297;43.210;27.914;2023-06-26T00:32:38;10.00;;;8.85;;
63203;SDS011;49297;43.210;27.914;2023-06-26T00:35:04;11.05;;;9.85;;
63203;SDS011;49297;43.210;27.914;2023-06-26T00:37:30;11.93;;;10.65;;
63203;SDS011;49297;43.210;27.914;2023-06-26T00:39:56;10.68;;;9.65;;
63203;SDS011;49297;43.210;27.914;2023-06-26T00:42:22;11.63;;;9.80;;
63203;SDS011;49297;43.210;27.914;2023-06-26T00:44:48;11.70;;;9.20;;
63203;SDS011;49297;43.210;27.914;2023-06-26T00:47:15;10.77;;;9.77;;
63203;SDS011;49297;43.210;27.914;2023-06-26T00:49:43;11.95;;;10.63;;
63203;SDS011;49297;43.210;27.914;2023-06-26T00:52:09;10.98;;;10.00;;
63203;SDS011;49297;43.210;27.914;2023-06-26T00:54:41;11.88;;;10.75;;
63203;SDS011;49297;43.210;27.914;2023-06-26T00:57:09;11.27;;;9.48;;
63203;SDS011;49297;43.210;27.914;2023-06-26T00:59:35;14.57;;;10.20;;
63203;SDS011;49297;43.210;27.914;2023-06-26T01:02:01;17.65;;;9.88;;
63203;SDS011;49297;43.210;27.914;2023-06-26T01:04:27;11.87;;;10.20;;
63203;SDS011;49297;43.210;27.914;2023-06-26T01:06:57;11.40;;;10.25;;
63203;SDS011;49297;43.210;27.914;2023-06-26T01:09:25;10.45;;;9.45;;
63203;SDS011;49297;43.210;27.914;2023-06-26T01:11:53;12.02;;;9.15;;
63203;SDS011;49297;43.210;27.914;2023-06-26T01:14:19;10.48;;;9.45;;
63203;SDS011;49297;43.210;27.914;2023-06-26T01:16:46;11.45;;;10.35;;
63203;SDS011;49297;43.210;27.914;2023-06-26T01:19:23;10.82;;;9.75;;
63203;SDS011;49297;43.210;27.914;2023-06-26T01:21:56;14.23;;;9.43;;
63203;SDS011;49297;43.210;27.914;2023-06-26T01:24:28;12.75;;;9.27;;
63203;SDS011;49297;43.210;27.914;2023-06-26T01:26:58;10.05;;;9.00;;
63203;SDS011;49297;43.210;27.914;2023-06-26T01:29:27;9.38;;;8.48;;
63203;SDS011;49297;43.210;27.914;2023-06-26T01:31:57;9.80;;;8.85;;
63203;SDS011;49297;43.210;27.914;2023-06-26T01:34:23;11.32;;;9.57;;
63203;SDS011;49297;43.210;27.914;2023-06-26T01:36:52;9.25;;;8.30;;
63203;SDS011;49297;43.210;27.914;2023-06-26T01:39:18;10.43;;;9.13;;
63203;SDS011;49297;43.210;27.914;2023-06-26T01:41:45;10.13;;;8.32;;
63203;SDS011;49297;43.210;27.914;2023-06-26T01:44:16;10.20;;;9.15;;
63203;SDS011;49297;43.210;27.914;2023-06-26T01:47:04;11.68;;;9.95;;
63203;SDS011;49297;43.210;27.914;2023-06-26T01:49:33;13.25;;;8.77;;
63203;SDS011;49297;43.210;27.914;2023-06-26T01:52:19;10.00;;;7.95;;
63203;SDS011;49297;43.210;27.914;2023-06-26T01:55:00;12.35;;;9.40;;
63203;SDS011;49297;43.210;27.914;2023-06-26T01:57:34;10.90;;;7.80;;
63203;SDS011;49297;43.210;27.914;2023-06-26T02:00:01;8.32;;;7.15;;
63203;SDS011;49297;43.210;27.914;2023-06-26T02:02:28;15.90;;;8.38;;
63203;SDS011;49297;43.210;27.914;2023-06-26T02:04:55;10.10;;;8.07;;
63203;SDS011;49297;43.210;27.914;2023-06-26T02:07:21;8.17;;;7.23;;
63203;SDS011;49297;43.210;27.914;2023-06-26T02:09:52;9.32;;;7.47;;
63203;SDS011;49297;43.210;27.914;2023-06-26T02:12:21;9.43;;;8.55;;
63203;SDS011;49297;43.210;27.914;2023-06-26T02:14:48;9.85;;;8.45;;
63203;SDS011;49297;43.210;27.914;2023-06-26T02:17:15;8.85;;;8.05;;
63203;SDS011;49297;43.210;27.914;2023-06-26T02:19:47;11.43;;;8.88;;
63203;SDS011;49297;43.210;27.914;2023-06-26T02:22:19;11.77;;;8.20;;
63203;SDS011;49297;43.210;27.914;2023-06-26T02:24:46;9.23;;;7.60;;
63203;SDS011;49297;43.210;27.914;2023-06-26T02:27:12;10.18;;;8.23;;
63203;SDS011;49297;43.210;27.914;2023-06-26T02:29:38;8.63;;;7.70;;
63203;SDS011;49297;43.210;27.914;2023-06-26T02:32:07;8.85;;;7.97;;
63203;SDS011;49297;43.210;27.914;2023-06-26T02:34:33;10.80;;;7.68;;
63203;SDS011;49297;43.210;27.914;2023-06-26T02:37:01;14.27;;;8.43;;
63203;SDS011;49297;43.210;27.914;2023-06-26T02:39:29;9.70;;;8.48;;
63203;SDS011;49297;43.210;27.914;2023-06-26T02:41:56;10.60;;;8.32;;
63203;SDS011;49297;43.210;27.914;2023-06-26T02:44:22;11.40;;;9.37;;
63203;SDS011;49297;43.210;27.914;2023-06-26T02:46:49;9.82;;;8.57;;
63203;SDS011;49297;43.210;27.914;2023-06-26T02:49:16;13.33;;;9.40;;
63203;SDS011;49297;43.210;27.914;2023-06-26T02:51:44;10.52;;;8.57;;
63203;SDS011;49297;43.210;27.914;2023-06-26T02:54:10;12.40;;;8.93;;
63203;SDS011;49297;43.210;27.914;2023-06-26T02:56:36;12.23;;;10.25;;
63203;SDS011;49297;43.210;27.914;2023-06-26T02:59:02;11.43;;;10.32;;
63203;SDS011;49297;43.210;27.914;2023-06-26T03:01:28;14.10;;;10.13;;
63203;SDS011;49297;43.210;27.914;2023-06-26T03:03:54;11.80;;;10.20;;
63203;SDS011;49297;43.210;27.914;2023-06-26T03:06:20;13.17;;;10.37;;
63203;SDS011;49297;43.210;27.914;2023-06-26T03:08:52;11.40;;;10.30;;
63203;SDS011;49297;43.210;27.914;2023-06-26T03:11:19;16.05;;;10.73;;
63203;SDS011;49297;43.210;27.914;2023-06-26T03:13:45;13.93;;;11.37;;
63203;SDS011;49297;43.210;27.914;2023-06-26T03:16:11;12.65;;;10.80;;
63203;SDS011;49297;43.210;27.914;2023-06-26T03:18:37;13.60;;;11.32;;
63203;SDS011;49297;43.210;27.914;2023-06-26T03:21:10;12.13;;;10.43;;
63203;SDS011;49297;43.210;27.914;2023-06-26T03:23:38;15.80;;;10.60;;
63203;SDS011;49297;43.210;27.914;2023-06-26T03:26:03;12.77;;;11.52;;
63203;SDS011;49297;43.210;27.914;2023-06-26T03:28:31;16.75;;;10.23;;
63203;SDS011;49297;43.210;27.914;2023-06-26T03:30:57;13.60;;;10.75;;
63203;SDS011;49297;43.210;27.914;2023-06-26T03:33:23;13.23;;;10.37;;
63203;SDS011;49297;43.210;27.914;2023-06-26T03:35:50;12.15;;;10.95;;
63203;SDS011;49297;43.210;27.914;2023-06-26T03:38:17;14.03;;;11.17;;
63203;SDS011;49297;43.210;27.914;2023-06-26T03:40:44;12.88;;;10.35;;
63203;SDS011;49297;43.210;27.914;2023-06-26T03:43:11;13.52;;;11.43;;
63203;SDS011;49297;43.210;27.914;2023-06-26T03:45:44;16.00;;;11.53;;
63203;SDS011;49297;43.210;27.914;2023-06-26T03:48:10;12.70;;;11.40;;
63203;SDS011;49297;43.210;27.914;2023-06-26T03:50:38;16.83;;;11.70;;
63203;SDS011;49297;43.210;27.914;2023-06-26T03:53:03;12.63;;;11.05;;
63203;SDS011;49297;43.210;27.914;2023-06-26T03:55:29;12.60;;;11.30;;
63203;SDS011;49297;43.210;27.914;2023-06-26T03:57:55;13.90;;;12.13;;
63203;SDS011;49297;43.210;27.914;2023-06-26T04:00:22;13.68;;;10.57;;
63203;SDS011;49297;43.210;27.914;2023-06-26T04:02:48;16.23;;;10.77;;
63203;SDS011;49297;43.210;27.914;2023-06-26T04:05:16;14.80;;;10.40;;
63203;SDS011;49297;43.210;27.914;2023-06-26T04:07:43;15.33;;;11.20;;
63203;SDS011;49297;43.210;27.914;2023-06-26T04:10:11;12.03;;;10.10;;
63203;SDS011;49297;43.210;27.914;2023-06-26T04:12:37;13.75;;;11.35;;
63203;SDS011;49297;43.210;27.914;2023-06-26T04:15:04;14.68;;;11.32;;
63203;SDS011;49297;43.210;27.914;2023-06-26T04:17:31;11.07;;;9.30;;
63203;SDS011;49297;43.210;27.914;2023-06-26T04:19:59;12.38;;;9.80;;
63203;SDS011;49297;43.210;27.914;2023-06-26T04:22:27;11.63;;;10.38;;
63203;SDS011;49297;43.210;27.914;2023-06-26T04:24:53;11.50;;;10.40;;
63203;SDS011;49297;43.210;27.914;2023-06-26T04:27:20;12.48;;;9.75;;
63203;SDS011;49297;43.210;27.914;2023-06-26T04:29:46;14.25;;;11.35;;
63203;SDS011;49297;43.210;27.914;2023-06-26T04:32:11;14.07;;;11.27;;
63203;SDS011;49297;43.210;27.914;2023-06-26T04:34:38;14.33;;;11.60;;
63203;SDS011;49297;43.210;27.914;2023-06-26T04:37:09;15.13;;;10.85;;
63203;SDS011;49297;43.210;27.914;2023-06-26T04:39:37;14.00;;;11.35;;
63203;SDS011;49297;43.210;27.914;2023-06-26T04:42:04;10.85;;;9.75;;
63203;SDS011;49297;43.210;27.914;2023-06-26T04:44:31;15.52;;;10.98;;
63203;SDS011;49297;43.210;27.914;2023-06-26T04:47:04;11.82;;;10.65;;
63203;SDS011;49297;43.210;27.914;2023-06-26T04:49:30;12.18;;;10.85;;
63203;SDS011;49297;43.210;27.914;2023-06-26T04:52:02;13.60;;;10.93;;
63203;SDS011;49297;43.210;27.914;2023-06-26T04:54:28;12.47;;;10.83;;
63203;SDS011;49297;43.210;27.914;2023-06-26T04:56:54;14.20;;;11.07;;
63203;SDS011;49297;43.210;27.914;2023-06-26T04:59:20;11.13;;;10.03;;
63203;SDS011;49297;43.210;27.914;2023-06-26T05:01:46;16.50;;;10.27;;
63203;SDS011;49297;43.210;27.914;2023-06-26T05:04:13;12.10;;;10.88;;
63203;SDS011;49297;43.210;27.914;2023-06-26T05:06:43;17.77;;;10.60;;
63203;SDS011;49297;43.210;27.914;2023-06-26T05:09:10;11.93;;;9.68;;
63203;SDS011;49297;43.210;27.914;2023-06-26T05:11:36;9.75;;;8.45;;
63203;SDS011;49297;43.210;27.914;2023-06-26T05:14:02;9.73;;;7.85;;
63203;SDS011;49297;43.210;27.914;2023-06-26T05:16:30;7.32;;;6.63;;
63203;SDS011;49297;43.210;27.914;2023-06-26T05:18:56;6.85;;;6.20;;
63203;SDS011;49297;43.210;27.914;2023-06-26T05:21:24;7.72;;;6.28;;
63203;SDS011;49297;43.210;27.914;2023-06-26T05:23:50;10.68;;;5.65;;
63203;SDS011;49297;43.210;27.914;2023-06-26T05:26:21;8.32;;;6.13;;
63203;SDS011;49297;43.210;27.914;2023-06-26T05:28:47;5.68;;;5.18;;
63203;SDS011;49297;43.210;27.914;2023-06-26T05:31:15;5.13;;;4.55;;
63203;SDS011;49297;43.210;27.914;2023-06-26T05:33:45;5.30;;;4.28;;
63203;SDS011;49297;43.210;27.914;2023-06-26T05:36:12;6.15;;;4.60;;
63203;SDS011;49297;43.210;27.914;2023-06-26T05:38:42;6.18;;;4.85;;
63203;SDS011;49297;43.210;27.914;2023-06-26T05:41:08;4.38;;;3.97;;
63203;SDS011;49297;43.210;27.914;2023-06-26T05:43:36;6.78;;;4.70;;
63203;SDS011;49297;43.210;27.914;2023-06-26T05:46:02;4.80;;;4.35;;
63203;SDS011;49297;43.210;27.914;2023-06-26T05:48:28;7.43;;;4.47;;
63203;SDS011;49297;43.210;27.914;2023-06-26T05:50:54;9.13;;;5.18;;
63203;SDS011;49297;43.210;27.914;2023-06-26T05:53:21;10.13;;;5.93;;
63203;SDS011;49297;43.210;27.914;2023-06-26T05:55:47;6.85;;;6.05;;
63203;SDS011;49297;43.210;27.914;2023-06-26T05:58:14;10.25;;;6.78;;
63203;SDS011;49297;43.210;27.914;2023-06-26T06:00:40;8.60;;;6.22;;
63203;SDS011;49297;43.210;27.914;2023-06-26T06:03:06;9.35;;;6.20;;
63203;SDS011;49297;43.210;27.914;2023-06-26T06:05:33;7.20;;;6.43;;
63203;SDS011;49297;43.210;27.914;2023-06-26T06:07:59;6.30;;;5.68;;
63203;SDS011;49297;43.210;27.914;2023-06-26T06:10:25;7.53;;;6.72;;
63203;SDS011;49297;43.210;27.914;2023-06-26T06:12:57;9.18;;;6.70;;
63203;SDS011;49297;43.210;27.914;2023-06-26T06:15:23;9.90;;;7.43;;
63203;SDS011;49297;43.210;27.914;2023-06-26T06:17:49;7.47;;;6.78;;
63203;SDS011;49297;43.210;27.914;2023-06-26T06:20:16;7.87;;;7.07;;
63203;SDS011;49297;43.210;27.914;2023-06-26T06:22:57;16.00;;;11.02;;
63203;SDS011;49297;43.210;27.914;2023-06-26T06:25:23;7.88;;;7.18;;
63203;SDS011;49297;43.210;27.914;2023-06-26T06:27:49;8.60;;;7.18;;
63203;SDS011;49297;43.210;27.914;2023-06-26T06:30:16;9.82;;;7.28;;
63203;SDS011;49297;43.210;27.914;2023-06-26T06:32:41;8.48;;;7.63;;
63203;SDS011;49297;43.210;27.914;2023-06-26T06:35:07;13.60;;;9.00;;
63203;SDS011;49297;43.210;27.914;2023-06-26T06:37:36;11.52;;;10.23;;
63203;SDS011;49297;43.210;27.914;2023-06-26T06:40:04;9.63;;;8.70;;
63203;SDS011;49297;43.210;27.914;2023-06-26T06:42:31;10.90;;;9.40;;
63203;SDS011;49297;43.210;27.914;2023-06-26T06:44:58;18.83;;;10.27;;
63203;SDS011;49297;43.210;27.914;2023-06-26T06:47:24;8.55;;;7.82;;
63203;SDS011;49297;43.210;27.914;2023-06-26T06:49:50;9.73;;;8.73;;
63203;SDS011;49297;43.210;27.914;2023-06-26T06:52:18;11.20;;;8.10;;
63203;SDS011;49297;43.210;27.914;2023-06-26T06:54:52;10.00;;;9.05;;
63203;SDS011;49297;43.210;27.914;2023-06-26T06:57:20;9.38;;;8.15;;
63203;SDS011;49297;43.210;27.914;2023-06-26T06:59:47;10.52;;;9.43;;
63203;SDS011;49297;43.210;27.914;2023-06-26T07:02:14;15.05;;;8.60;;
63203;SDS011;49297;43.210;27.914;2023-06-26T07:04:43;10.30;;;8.35;;
63203;SDS011;49297;43.210;27.914;2023-06-26T07:07:09;9.98;;;8.52;;
63203;SDS011;49297;43.210;27.914;2023-06-26T07:09:36;16.73;;;8.50;;
63203;SDS011;49297;43.210;27.914;2023-06-26T07:12:02;10.10;;;9.10;;
63203;SDS011;49297;43.210;27.914;2023-06-26T07:14:28;9.05;;;8.15;;
63203;SDS011;49297;43.210;27.914;2023-06-26T07:16:57;8.88;;;7.97;;
63203;SDS011;49297;43.210;27.914;2023-06-26T07:19:23;10.35;;;9.02;;
63203;SDS011;49297;43.210;27.914;2023-06-26T07:21:49;11.38;;;9.38;;
63203;SDS011;49297;43.210;27.914;2023-06-26T07:24:15;9.77;;;7.95;;
63203;SDS011;49297;43.210;27.914;2023-06-26T07:26:42;9.83;;;8.83;;
63203;SDS011;49297;43.210;27.914;2023-06-26T07:29:08;9.82;;;8.82;;
63203;SDS011;49297;43.210;27.914;2023-06-26T07:31:34;8.75;;;7.93;;
63203;SDS011;49297;43.210;27.914;2023-06-26T07:33:59;9.33;;;8.27;;
63203;SDS011;49297;43.210;27.914;2023-06-26T07:36:26;8.45;;;7.65;;
63203;SDS011;49297;43.210;27.914;2023-06-26T07:38:59;9.43;;;8.13;;
63203;SDS011;49297;43.210;27.914;2023-06-26T07:41:25;7.93;;;7.17;;
63203;SDS011;49297;43.210;27.914;2023-06-26T07:43:51;11.88;;;7.90;;
63203;SDS011;49297;43.210;27.914;2023-06-26T07:46:18;10.02;;;7.55;;
63203;SDS011;49297;43.210;27.914;2023-06-26T07:48:45;9.85;;;7.75;;
63203;SDS011;49297;43.210;27.914;2023-06-26T07:51:11;10.90;;;6.78;;
63203;SDS011;49297;43.210;27.914;2023-06-26T07:53:37;8.27;;;7.03;;
63203;SDS011;49297;43.210;27.914;2023-06-26T07:56:04;9.65;;;6.20;;
63203;SDS011;49297;43.210;27.914;2023-06-26T07:58:30;10.48;;;7.43;;
63203;SDS011;49297;43.210;27.914;2023-06-26T08:00:56;8.60;;;7.38;;
63203;SDS011;49297;43.210;27.914;2023-06-26T08:03:22;10.17;;;6.73;;
63203;SDS011;49297;43.210;27.914;2023-06-26T08:05:51;10.40;;;7.20;;
63203;SDS011;49297;43.210;27.914;2023-06-26T08:08:17;8.55;;;6.95;;
63203;SDS011;49297;43.210;27.914;2023-06-26T08:10:44;7.33;;;6.50;;
63203;SDS011;49297;43.210;27.914;2023-06-26T08:13:10;7.95;;;6.47;;
63203;SDS011;49297;43.210;27.914;2023-06-26T08:15:36;15.10;;;7.65;;
63203;SDS011;49297;43.210;27.914;2023-06-26T08:18:02;9.67;;;6.83;;
63203;SDS011;49297;43.210;27.914;2023-06-26T08:20:30;7.35;;;6.65;;
63203;SDS011;49297;43.210;27.914;2023-06-26T08:22:56;8.00;;;6.38;;
63203;SDS011;49297;43.210;27.914;2023-06-26T08:25:22;8.60;;;6.77;;
63203;SDS011;49297;43.210;27.914;2023-06-26T08:27:49;8.30;;;7.22;;
63203;SDS011;49297;43.210;27.914;2023-06-26T08:30:17;8.73;;;6.53;;
63203;SDS011;49297;43.210;27.914;2023-06-26T08:32:44;9.77;;;6.13;;
63203;SDS011;49297;43.210;27.914;2023-06-26T08:35:10;6.38;;;5.40;;
63203;SDS011;49297;43.210;27.914;2023-06-26T08:37:37;6.15;;;5.55;;
63203;SDS011;49297;43.210;27.914;2023-06-26T08:40:03;6.85;;;5.97;;
63203;SDS011;49297;43.210;27.914;2023-06-26T08:42:30;8.57;;;7.43;;
63203;SDS011;49297;43.210;27.914;2023-06-26T08:44:56;7.68;;;6.32;;
63203;SDS011;49297;43.210;27.914;2023-06-26T08:47:30;8.50;;;6.47;;
63203;SDS011;49297;43.210;27.914;2023-06-26T08:50:07;6.68;;;5.95;;
63203;SDS011;49297;43.210;27.914;2023-06-26T08:52:36;9.40;;;5.40;;
63203;SDS011;49297;43.210;27.914;2023-06-26T08:55:07;6.07;;;5.47;;
63203;SDS011;49297;43.210;27.914;2023-06-26T08:57:36;6.80;;;6.10;;
63203;SDS011;49297;43.210;27.914;2023-06-26T09:00:03;16.27;;;5.80;;
63203;SDS011;49297;43.210;27.914;2023-06-26T09:02:29;6.88;;;6.05;;
63203;SDS011;49297;43.210;27.914;2023-06-26T09:04:56;6.45;;;5.85;;
63203;SDS011;49297;43.210;27.914;2023-06-26T09:07:22;5.90;;;5.20;;
63203;SDS011;49297;43.210;27.914;2023-06-26T09:09:48;6.27;;;5.67;;
63203;SDS011;49297;43.210;27.914;2023-06-26T09:12:16;6.80;;;5.00;;
63203;SDS011;49297;43.210;27.914;2023-06-26T09:14:43;8.18;;;6.97;;
63203;SDS011;49297;43.210;27.914;2023-06-26T09:17:12;6.32;;;5.32;;
63203;SDS011;49297;43.210;27.914;2023-06-26T09:19:39;8.77;;;6.50;;
63203;SDS011;49297;43.210;27.914;2023-06-26T09:22:10;9.80;;;6.85;;
63203;SDS011;49297;43.210;27.914;2023-06-26T09:24:41;7.03;;;4.88;;
63203;SDS011;49297;43.210;27.914;2023-06-26T09:27:07;7.05;;;5.07;;
63203;SDS011;49297;43.210;27.914;2023-06-26T09:29:35;8.87;;;6.13;;
63203;SDS011;49297;43.210;27.914;2023-06-26T09:32:01;6.20;;;5.25;;
63203;SDS011;49297;43.210;27.914;2023-06-26T09:34:31;8.03;;;5.30;;
63203;SDS011;49297;43.210;27.914;2023-06-26T09:36:58;6.47;;;5.10;;
63203;SDS011;49297;43.210;27.914;2023-06-26T09:39:30;5.05;;;4.55;;
63203;SDS011;49297;43.210;27.914;2023-06-26T09:41:56;12.35;;;4.97;;
63203;SDS011;49297;43.210;27.914;2023-06-26T09:44:23;5.97;;;4.93;;
63203;SDS011;49297;43.210;27.914;2023-06-26T09:46:49;6.20;;;5.00;;
63203;SDS011;49297;43.210;27.914;2023-06-26T09:49:15;6.63;;;5.43;;
63203;SDS011;49297;43.210;27.914;2023-06-26T09:51:41;5.47;;;4.97;;
63203;SDS011;49297;43.210;27.914;2023-06-26T09:54:08;6.88;;;5.10;;
63203;SDS011;49297;43.210;27.914;2023-06-26T09:56:35;6.88;;;5.25;;
63203;SDS011;49297;43.210;27.914;2023-06-26T09:59:01;8.90;;;5.63;;
63203;SDS011;49297;43.210;27.914;2023-06-26T10:01:30;6.53;;;5.28;;
63203;SDS011;49297;43.210;27.914;2023-06-26T10:03:57;8.13;;;4.82;;
63203;SDS011;49297;43.210;27.914;2023-06-26T10:06:36;5.07;;;4.40;;
63203;SDS011;49297;43.210;27.914;2023-06-26T10:09:05;6.60;;;5.22;;
63203;SDS011;49297;43.210;27.914;2023-06-26T10:11:43;6.13;;;4.05;;
63203;SDS011;49297;43.210;27.914;2023-06-26T10:14:15;6.53;;;4.63;;
63203;SDS011;49297;43.210;27.914;2023-06-26T10:16:42;4.60;;;4.15;;
63203;SDS011;49297;43.210;27.914;2023-06-26T10:19:12;4.22;;;3.83;;
63203;SDS011;49297;43.210;27.914;2023-06-26T10:21:40;5.80;;;4.60;;
63203;SDS011;49297;43.210;27.914;2023-06-26T10:24:08;4.47;;;4.07;;
63203;SDS011;49297;43.210;27.914;2023-06-26T10:26:38;6.03;;;4.80;;
63203;SDS011;49297;43.210;27.914;2023-06-26T10:29:08;6.23;;;4.47;;
63203;SDS011;49297;43.210;27.914;2023-06-26T10:31:35;5.93;;;4.47;;
63203;SDS011;49297;43.210;27.914;2023-06-26T10:34:02;5.20;;;4.10;;
63203;SDS011;49297;43.210;27.914;2023-06-26T10:36:30;5.00;;;4.60;;
63203;SDS011;49297;43.210;27.914;2023-06-26T10:38:58;5.07;;;4.10;;
63203;SDS011;49297;43.210;27.914;2023-06-26T10:41:39;4.50;;;3.70;;
63203;SDS011;49297;43.210;27.914;2023-06-26T10:44:10;6.60;;;4.38;;
63203;SDS011;49297;43.210;27.914;2023-06-26T10:46:55;4.28;;;3.88;;
63203;SDS011;49297;43.210;27.914;2023-06-26T10:49:29;4.87;;;3.60;;
63203;SDS011;49297;43.210;27.914;2023-06-26T10:51:56;4.45;;;3.92;;
63203;SDS011;49297;43.210;27.914;2023-06-26T10:54:30;6.60;;;5.10;;
63203;SDS011;49297;43.210;27.914;2023-06-26T10:56:58;8.30;;;4.70;;
63203;SDS011;49297;43.210;27.914;2023-06-26T10:59:27;5.50;;;3.70;;
63203;SDS011;49297;43.210;27.914;2023-06-26T11:04:38;3.67;;;3.17;;
63203;SDS011;49297;43.210;27.914;2023-06-26T11:10:02;5.22;;;3.65;;
63203;SDS011;49297;43.210;27.914;2023-06-26T11:15:02;5.03;;;3.60;;
63203;SDS011;49297;43.210;27.914;2023-06-26T11:17:30;3.55;;;3.08;;
63203;SDS011;49297;43.210;27.914;2023-06-26T11:19:57;6.07;;;3.93;;
63203;SDS011;49297;43.210;27.914;2023-06-26T11:22:25;5.05;;;3.10;;
63203;SDS011;49297;43.210;27.914;2023-06-26T11:24:53;4.30;;;3.47;;
63203;SDS011;49297;43.210;27.914;2023-06-26T11:27:19;3.33;;;3.03;;
63203;SDS011;49297;43.210;27.914;2023-06-26T11:29:55;4.22;;;3.42;;
63203;SDS011;49297;43.210;27.914;2023-06-26T11:32:21;7.28;;;3.42;;
63203;SDS011;49297;43.210;27.914;2023-06-26T11:34:47;6.07;;;3.83;;
63203;SDS011;49297;43.210;27.914;2023-06-26T11:37:17;4.93;;;4.10;;
63203;SDS011;49297;43.210;27.914;2023-06-26T11:39:44;5.22;;;3.72;;
63203;SDS011;49297;43.210;27.914;2023-06-26T11:42:10;3.75;;;3.45;;
63203;SDS011;49297;43.210;27.914;2023-06-26T11:44:39;3.58;;;2.75;;
63203;SDS011;49297;43.210;27.914;2023-06-26T11:47:07;10.38;;;3.25;;
63203;SDS011;49297;43.210;27.914;2023-06-26T11:49:34;3.97;;;2.83;;
63203;SDS011;49297;43.210;27.914;2023-06-26T11:52:02;2.60;;;2.40;;
63203;SDS011;49297;43.210;27.914;2023-06-26T11:54:29;4.20;;;2.90;;
63203;SDS011;49297;43.210;27.914;2023-06-26T11:56:56;3.92;;;3.20;;
63203;SDS011;49297;43.210;27.914;2023-06-26T11:59:24;6.82;;;4.85;;
63203;SDS011;49297;43.210;27.914;2023-06-26T12:01:58;6.65;;;5.55;;
63203;SDS011;49297;43.210;27.914;2023-06-26T12:04:25;5.63;;;5.10;;
63203;SDS011;49297;43.210;27.914;2023-06-26T12:06:52;9.90;;;6.77;;
63203;SDS011;49297;43.210;27.914;2023-06-26T12:09:22;9.55;;;5.65;;
63203;SDS011;49297;43.210;27.914;2023-06-26T12:11:51;9.13;;;6.20;;
63203;SDS011;49297;43.210;27.914;2023-06-26T12:14:19;7.35;;;6.53;;
63203;SDS011;49297;43.210;27.914;2023-06-26T12:16:48;6.38;;;5.72;;
63203;SDS011;49297;43.210;27.914;2023-06-26T12:19:14;7.03;;;6.32;;
63203;SDS011;49297;43.210;27.914;2023-06-26T12:24:08;7.05;;;6.35;;
63203;SDS011;49297;43.210;27.914;2023-06-26T12:26:41;7.13;;;6.22;;
63203;SDS011;49297;43.210;27.914;2023-06-26T12:29:17;6.95;;;6.03;;
63203;SDS011;49297;43.210;27.914;2023-06-26T12:31:50;7.23;;;6.53;;
63203;SDS011;49297;43.210;27.914;2023-06-26T12:37:14;7.10;;;6.40;;
63203;SDS011;49297;43.210;27.914;2023-06-26T12:42:19;10.75;;;6.38;;
63203;SDS011;49297;43.210;27.914;2023-06-26T12:44:50;8.73;;;7.88;;
63203;SDS011;49297;43.210;27.914;2023-06-26T12:47:16;10.60;;;8.20;;
63203;SDS011;49297;43.210;27.914;2023-06-26T12:49:50;7.35;;;5.43;;
63203;SDS011;49297;43.210;27.914;2023-06-26T12:52:17;10.40;;;6.38;;
63203;SDS011;49297;43.210;27.914;2023-06-26T12:54:47;8.65;;;6.38;;
63203;SDS011;49297;43.210;27.914;2023-06-26T12:57:19;7.38;;;6.78;;
63203;SDS011;49297;43.210;27.914;2023-06-26T12:59:44;7.28;;;6.65;;
63203;SDS011;49297;43.210;27.914;2023-06-26T13:02:10;7.47;;;6.53;;
63203;SDS011;49297;43.210;27.914;2023-06-26T13:04:37;8.82;;;7.55;;
63203;SDS011;49297;43.210;27.914;2023-06-26T13:07:07;11.80;;;7.00;;
63203;SDS011;49297;43.210;27.914;2023-06-26T13:09:33;7.80;;;7.07;;
63203;SDS011;49297;43.210;27.914;2023-06-26T13:12:01;11.15;;;6.65;;
63203;SDS011;49297;43.210;27.914;2023-06-26T13:14:29;6.97;;;6.38;;
63203;SDS011;49297;43.210;27.914;2023-06-26T13:16:56;10.40;;;6.67;;
63203;SDS011;49297;43.210;27.914;2023-06-26T13:19:22;14.80;;;7.45;;
63203;SDS011;49297;43.210;27.914;2023-06-26T13:21:56;7.20;;;6.53;;
63203;SDS011;49297;43.210;27.914;2023-06-26T13:24:22;5.97;;;5.47;;
63203;SDS011;49297;43.210;27.914;2023-06-26T13:26:48;6.75;;;6.13;;
63203;SDS011;49297;43.210;27.914;2023-06-26T13:29:14;6.22;;;5.55;;
63203;SDS011;49297;43.210;27.914;2023-06-26T13:31:41;10.40;;;7.07;;
63203;SDS011;49297;43.210;27.914;2023-06-26T13:34:07;7.73;;;7.00;;
63203;SDS011;49297;43.210;27.914;2023-06-26T13:36:33;7.32;;;5.95;;
63203;SDS011;49297;43.210;27.914;2023-06-26T13:39:05;7.60;;;6.30;;
63203;SDS011;49297;43.210;27.914;2023-06-26T13:41:31;7.47;;;5.80;;
63203;SDS011;49297;43.210;27.914;2023-06-26T13:43:57;7.03;;;6.10;;
63203;SDS011;49297;43.210;27.914;2023-06-26T13:46:22;8.83;;;6.53;;
63203;SDS011;49297;43.210;27.914;2023-06-26T13:48:48;6.45;;;5.90;;
63203;SDS011;49297;43.210;27.914;2023-06-26T13:51:14;9.10;;;5.93;;
63203;SDS011;49297;43.210;27.914;2023-06-26T13:53:40;8.25;;;6.72;;
63203;SDS011;49297;43.210;27.914;2023-06-26T13:56:07;6.57;;;5.57;;
63203;SDS011;49297;43.210;27.914;2023-06-26T13:58:34;5.88;;;5.28;;
63203;SDS011;49297;43.210;27.914;2023-06-26T14:01:02;8.57;;;5.93;;
63203;SDS011;49297;43.210;27.914;2023-06-26T14:03:29;7.05;;;6.40;;
63203;SDS011;49297;43.210;27.914;2023-06-26T14:05:55;6.30;;;5.70;;
63203;SDS011;49297;43.210;27.914;2023-06-26T14:08:22;6.13;;;5.47;;
63203;SDS011;49297;43.210;27.914;2023-06-26T14:10:48;5.95;;;5.45;;
63203;SDS011;49297;43.210;27.914;2023-06-26T14:13:15;5.88;;;5.32;;
63203;SDS011;49297;43.210;27.914;2023-06-26T14:15:41;6.90;;;6.20;;
63203;SDS011;49297;43.210;27.914;2023-06-26T14:18:09;6.00;;;5.50;;
63203;SDS011;49297;43.210;27.914;2023-06-26T14:20:35;8.43;;;5.57;;
63203;SDS011;49297;43.210;27.914;2023-06-26T14:23:07;8.90;;;5.68;;
63203;SDS011;49297;43.210;27.914;2023-06-26T14:25:33;6.68;;;6.07;;
63203;SDS011;49297;43.210;27.914;2023-06-26T14:27:59;8.10;;;5.97;;
63203;SDS011;49297;43.210;27.914;2023-06-26T14:30:24;6.10;;;5.50;;
63203;SDS011;49297;43.210;27.914;2023-06-26T14:32:51;8.20;;;6.03;;
63203;SDS011;49297;43.210;27.914;2023-06-26T14:35:19;6.50;;;5.90;;
63203;SDS011;49297;43.210;27.914;2023-06-26T14:37:44;6.40;;;5.80;;
63203;SDS011;49297;43.210;27.914;2023-06-26T14:40:10;7.53;;;5.97;;
63203;SDS011;49297;43.210;27.914;2023-06-26T14:42:37;9.52;;;6.15;;
63203;SDS011;49297;43.210;27.914;2023-06-26T14:45:04;5.93;;;5.43;;